Spring's Hourly Summary for Tuesday, May 15, 2018
Hour Temp
(f)
RH
(%)
Solar Rad.
(MJ/m2)
Rainfall
(in)
Wind
(mph)
5/15/2018 12:00 AM 76 71 0 0 2.85
5/15/2018 1:00 AM 74 79 0 0 1.87
5/15/2018 2:00 AM 73 86 0 0 0.56
5/15/2018 3:00 AM 72 87 0 0 0.22
5/15/2018 4:00 AM 70 91 0 0 0.01
5/15/2018 5:00 AM 69 94 0 0 0
5/15/2018 6:00 AM 67 96 0 0 0.22
5/15/2018 7:00 AM 67 97 0.02 0 0.03
5/15/2018 8:00 AM 70 85 0.62 0 0.08
5/15/2018 9:00 AM 76 75 1.22 0 1.5
5/15/2018 10:00 AM 78 62 1.76 0 3.42
5/15/2018 11:00 AM 81 51 2.36 0 3.37
5/15/2018 12:00 PM 84 40 3.14 0 3.12
5/15/2018 1:00 PM 86 39 3.45 0 3.06
5/15/2018 2:00 PM 88 28 3.56 0 3.99
5/15/2018 3:00 PM 89 31 3.35 0 4.91
5/15/2018 4:00 PM 91 30 3.09 0 4.45
5/15/2018 5:00 PM 91 29 2.58 0 6
5/15/2018 6:00 PM 91 31 1.74 0 5.03
5/15/2018 7:00 PM 90 34 0.67 0 3.43
5/15/2018 8:00 PM 88 37 0.15 0 4.18
5/15/2018 9:00 PM 86 40 0 0 3.88
5/15/2018 10:00 PM 83 44 0 0 3.42
5/15/2018 11:00 PM 81 50 0 0 2.1
Data Summary 80 58 27.71 0.00 2.57